createdAt,value
2022-12-23T00:02:47.215Z,3.97
2022-12-23T00:05:51.318Z,3.99
2022-12-23T00:08:58.350Z,4.04
2022-12-23T00:12:20.526Z,4.02
2022-12-23T00:15:23.105Z,3.96
2022-12-23T00:18:26.723Z,4.02
2022-12-23T00:21:29.444Z,4.04
2022-12-23T00:24:32.315Z,4.14
2022-12-23T00:27:37.673Z,4.10
2022-12-23T00:30:51.886Z,4.07
2022-12-23T00:33:54.504Z,4.07
2022-12-23T00:36:57.350Z,4.17
2022-12-23T00:40:19.281Z,4.11
2022-12-23T00:43:22.297Z,4.04
2022-12-23T00:46:25.168Z,4.08
2022-12-23T00:49:43.309Z,4.06
2022-12-23T00:52:45.820Z,4.11
2022-12-23T00:55:48.878Z,4.16
2022-12-23T00:58:51.631Z,4.08
2022-12-23T01:02:13.817Z,4.09
2022-12-23T01:05:36.627Z,4.09
2022-12-23T01:08:40.471Z,4.06
2022-12-23T01:11:43.126Z,4.00
2022-12-23T01:14:46.180Z,4.10
2022-12-23T01:17:48.898Z,4.08
2022-12-23T01:20:51.762Z,4.01
2022-12-23T01:23:54.265Z,4.03
2022-12-23T01:26:57.513Z,4.00
2022-12-23T01:30:00.283Z,4.11
2022-12-23T01:33:03.350Z,4.01
2022-12-23T01:36:08.400Z,3.90
2022-12-23T01:39:11.377Z,3.97
2022-12-23T01:42:34.306Z,3.96
2022-12-23T01:45:37.421Z,4.03
2022-12-23T01:48:44.111Z,4.03
2022-12-23T01:51:47.011Z,4.14
2022-12-23T01:54:49.890Z,4.07
2022-12-23T01:57:56.672Z,4.19
2022-12-23T02:01:19.146Z,4.12
2022-12-23T02:04:24.874Z,4.13
2022-12-23T02:07:46.582Z,4.18
2022-12-23T02:11:28.180Z,4.19
2022-12-23T02:15:23.804Z,4.25
2022-12-23T02:18:51.552Z,4.24
2022-12-23T02:22:36.223Z,4.23
2022-12-23T02:25:51.271Z,4.16
2022-12-23T02:28:53.769Z,4.22
2022-12-23T02:32:10.889Z,4.24
2022-12-23T02:35:29.222Z,4.22
2022-12-23T02:39:09.114Z,4.07
2022-12-23T02:42:16.799Z,4.07
2022-12-23T02:45:32.207Z,4.05
2022-12-23T02:48:34.818Z,4.08
2022-12-23T02:51:43.149Z,4.05
2022-12-23T02:54:54.111Z,3.97
2022-12-23T02:58:00.146Z,3.82
2022-12-23T03:01:07.199Z,3.78
2022-12-23T03:04:10.288Z,3.89
2022-12-23T03:07:33.029Z,3.77
2022-12-23T03:11:09.820Z,3.68
2022-12-23T03:14:33.626Z,3.71
2022-12-23T03:18:04.367Z,3.62
2022-12-23T03:21:47.423Z,3.67
2022-12-23T03:25:03.634Z,3.70
2022-12-23T03:28:09.168Z,3.56
2022-12-23T03:31:18.325Z,3.72
2022-12-23T03:34:26.261Z,3.62
2022-12-23T03:37:33.826Z,3.58
2022-12-23T03:40:41.708Z,3.64
2022-12-23T03:43:53.234Z,3.61
2022-12-23T03:47:09.204Z,3.68
2022-12-23T03:50:15.603Z,3.51
2022-12-23T03:53:28.838Z,3.53
2022-12-23T03:56:40.836Z,3.59
2022-12-23T03:59:47.143Z,3.54
2022-12-23T04:02:59.501Z,3.51
2022-12-23T04:06:07.035Z,3.49
2022-12-23T04:09:11.007Z,3.50
2022-12-23T04:12:15.187Z,3.50
2022-12-23T04:15:26.524Z,3.48
2022-12-23T04:18:29.779Z,3.52
2022-12-23T04:21:32.507Z,3.42
2022-12-23T04:24:35.343Z,3.53
2022-12-23T04:27:38.070Z,3.38
2022-12-23T04:30:41.133Z,3.44
2022-12-23T04:33:43.658Z,3.51
2022-12-23T04:36:46.705Z,3.46
2022-12-23T04:39:49.297Z,3.57
2022-12-23T04:42:52.019Z,3.44
2022-12-23T04:45:54.625Z,3.41
2022-12-23T04:48:58.325Z,3.42
2022-12-23T04:52:01.064Z,3.43
2022-12-23T04:55:07.332Z,3.45
2022-12-23T04:58:09.898Z,3.49
2022-12-23T05:01:15.944Z,3.49
2022-12-23T05:04:18.880Z,3.43
2022-12-23T05:07:21.705Z,3.36
2022-12-23T05:10:24.836Z,3.32
2022-12-23T05:13:27.792Z,3.20
2022-12-23T05:16:31.683Z,3.22
2022-12-23T05:19:35.680Z,3.15
2022-12-23T05:22:38.519Z,3.04
2022-12-23T05:25:41.510Z,3.13
2022-12-23T05:28:45.632Z,3.19
2022-12-23T05:31:48.684Z,3.13
2022-12-23T05:34:51.319Z,3.17
2022-12-23T05:37:54.746Z,3.17
2022-12-23T05:40:57.606Z,3.09
2022-12-23T05:44:00.563Z,3.01
2022-12-23T05:47:02.966Z,2.94
2022-12-23T05:50:06.522Z,3.01
2022-12-23T05:53:09.562Z,3.00
2022-12-23T05:56:12.393Z,3.02
2022-12-23T05:59:15.201Z,3.06
2022-12-23T06:02:18.602Z,3.08
2022-12-23T06:05:21.938Z,3.05
2022-12-23T06:08:25.313Z,2.87
2022-12-23T06:11:29.557Z,3.02
2022-12-23T06:14:32.964Z,3.04
2022-12-23T06:17:36.165Z,2.92
2022-12-23T06:20:39.071Z,2.98
2022-12-23T06:23:42.008Z,3.01
2022-12-23T06:26:44.646Z,2.90
2022-12-23T06:29:48.662Z,3.04
2022-12-23T06:32:51.220Z,2.83
2022-12-23T06:35:53.974Z,2.77
2022-12-23T06:38:56.553Z,2.78
2022-12-23T06:41:59.424Z,2.75
2022-12-23T06:45:02.139Z,2.80
2022-12-23T06:48:06.122Z,2.81
2022-12-23T06:51:15.311Z,2.76
2022-12-23T06:54:18.226Z,2.68
2022-12-23T06:57:20.787Z,2.72
2022-12-23T07:00:25.001Z,2.75
2022-12-23T07:03:27.898Z,2.80
2022-12-23T07:06:31.864Z,2.81
2022-12-23T07:09:34.484Z,2.72
2022-12-23T07:12:37.545Z,2.63
2022-12-23T07:15:40.207Z,2.58
2022-12-23T07:18:43.963Z,2.60
2022-12-23T07:21:46.594Z,2.56
2022-12-23T07:24:49.614Z,2.63
2022-12-23T07:27:55.566Z,2.54
2022-12-23T07:30:59.618Z,2.63
2022-12-23T07:34:02.894Z,2.57
2022-12-23T07:37:06.045Z,2.43
2022-12-23T07:40:10.350Z,2.62
2022-12-23T07:43:15.553Z,2.48
2022-12-23T07:46:18.718Z,2.47
2022-12-23T07:49:21.735Z,2.51
2022-12-23T07:52:24.457Z,2.49
2022-12-23T07:55:27.568Z,2.60
2022-12-23T07:58:30.094Z,2.59
2022-12-23T08:01:33.053Z,2.66
2022-12-23T08:04:45.646Z,2.62
2022-12-23T08:07:50.165Z,2.50
2022-12-23T08:10:59.572Z,2.54
2022-12-23T08:14:02.391Z,2.63
2022-12-23T08:17:05.574Z,2.70
2022-12-23T08:20:08.679Z,2.71
2022-12-23T08:23:11.516Z,2.78
2022-12-23T08:26:17.361Z,2.72
2022-12-23T08:29:20.625Z,2.51
2022-12-23T08:32:27.093Z,2.50
2022-12-23T08:35:30.439Z,2.63
2022-12-23T08:38:35.312Z,2.53
2022-12-23T08:41:48.243Z,2.73
2022-12-23T08:44:56.498Z,2.54
2022-12-23T08:47:59.382Z,2.61
2022-12-23T08:51:07.396Z,2.71
2022-12-23T08:54:10.793Z,2.63
2022-12-23T08:57:20.948Z,2.53
2022-12-23T09:00:39.080Z,2.54
2022-12-23T09:03:42.605Z,2.64
2022-12-23T09:06:45.752Z,2.74
2022-12-23T09:09:48.267Z,2.81
2022-12-23T09:12:52.343Z,2.86
2022-12-23T09:15:56.677Z,2.98
2022-12-23T09:18:59.843Z,3.09
2022-12-23T09:22:02.831Z,3.38
2022-12-23T09:25:06.466Z,2.96
2022-12-23T09:28:09.728Z,3.13
2022-12-23T09:31:13.543Z,3.07
2022-12-23T09:34:17.698Z,2.97
2022-12-23T09:37:20.708Z,2.92
2022-12-23T09:40:25.346Z,2.98
2022-12-23T09:43:33.726Z,2.95
2022-12-23T09:47:04.367Z,3.02
2022-12-23T09:50:28.836Z,2.92
2022-12-23T09:53:44.842Z,2.99
2022-12-23T09:56:53.664Z,3.26
2022-12-23T10:00:04.891Z,3.21
2022-12-23T10:03:28.861Z,3.17
2022-12-23T10:06:34.429Z,3.27
2022-12-23T10:09:40.688Z,3.13
2022-12-23T10:12:50.885Z,3.01
2022-12-23T10:15:56.132Z,3.02
2022-12-23T10:19:08.982Z,3.27
2022-12-23T10:22:17.344Z,3.11
2022-12-23T10:25:28.607Z,3.01
2022-12-23T10:28:31.250Z,3.20
2022-12-23T10:31:57.054Z,3.39
2022-12-23T10:35:18.491Z,3.41
2022-12-23T10:38:33.563Z,3.36
2022-12-23T10:42:13.839Z,3.59
2022-12-23T10:45:47.500Z,3.64
2022-12-23T10:49:08.076Z,3.58
2022-12-23T10:52:28.940Z,3.55
2022-12-23T10:55:36.455Z,3.54
2022-12-23T10:58:46.397Z,3.58
2022-12-23T11:01:56.710Z,3.58
2022-12-23T11:04:59.853Z,3.51
2022-12-23T11:08:03.146Z,3.62
2022-12-23T11:11:07.369Z,3.66
2022-12-23T11:14:30.413Z,3.66
2022-12-23T11:17:35.157Z,3.74
2022-12-23T11:20:44.238Z,3.73
2022-12-23T11:23:47.667Z,3.79
2022-12-23T11:27:05.891Z,3.87
2022-12-23T11:30:18.261Z,3.75
2022-12-23T11:33:31.090Z,3.95
2022-12-23T11:36:35.622Z,4.01
2022-12-23T11:39:48.256Z,3.96
2022-12-23T11:43:03.177Z,4.01
2022-12-23T11:46:38.677Z,4.04
2022-12-23T11:49:53.986Z,4.08
2022-12-23T11:53:11.365Z,4.18
2022-12-23T11:56:15.571Z,4.31
2022-12-23T11:59:38.332Z,4.19
2022-12-23T12:02:45.166Z,4.15
2022-12-23T12:05:56.002Z,4.22
2022-12-23T12:09:01.547Z,4.29
2022-12-23T12:12:12.657Z,4.32
2022-12-23T12:15:44.731Z,4.43
2022-12-23T12:18:55.116Z,4.31
2022-12-23T12:22:06.079Z,4.55
2022-12-23T12:25:22.738Z,4.44
2022-12-23T12:28:32.794Z,4.44
2022-12-23T12:31:48.794Z,4.42
2022-12-23T12:35:13.232Z,5.03
2022-12-23T12:38:34.065Z,4.98
2022-12-23T12:41:53.088Z,5.08
2022-12-23T12:45:14.908Z,5.04
2022-12-23T12:48:48.898Z,5.20
2022-12-23T12:52:02.494Z,5.07
2022-12-23T12:55:15.150Z,5.00
2022-12-23T12:58:21.152Z,5.22
2022-12-23T13:01:40.620Z,5.17
2022-12-23T13:05:08.991Z,5.08
2022-12-23T13:08:14.587Z,5.61
2022-12-23T13:11:28.951Z,5.57
2022-12-23T13:14:35.268Z,5.73
2022-12-23T13:17:48.310Z,5.35
2022-12-23T13:20:59.883Z,5.61
2022-12-23T13:24:28.314Z,5.25
2022-12-23T13:28:12.859Z,5.46
2022-12-23T13:31:30.997Z,5.56
2022-12-23T13:34:46.363Z,5.38
2022-12-23T13:38:21.031Z,5.47
2022-12-23T13:41:39.970Z,5.23
2022-12-23T13:44:43.565Z,5.57
2022-12-23T13:48:15.075Z,5.61
2022-12-23T13:51:37.865Z,5.86
2022-12-23T13:54:43.343Z,5.60
2022-12-23T13:58:11.436Z,5.77
2022-12-23T14:01:14.726Z,6.03
2022-12-23T14:04:36.720Z,6.12
2022-12-23T14:07:44.180Z,5.86
2022-12-23T14:11:10.801Z,5.75
2022-12-23T14:14:25.527Z,5.86
2022-12-23T14:17:43.758Z,5.58
2022-12-23T14:21:05.276Z,5.82
2022-12-23T14:24:27.978Z,5.93
2022-12-23T14:27:42.954Z,5.53
2022-12-23T14:30:46.448Z,5.99
2022-12-23T14:33:51.233Z,6.03
2022-12-23T14:37:24.266Z,6.03
2022-12-23T14:40:37.528Z,5.80
2022-12-23T14:43:46.680Z,5.97
2022-12-23T14:46:49.172Z,6.01
2022-12-23T14:49:54.756Z,5.86
2022-12-23T14:53:20.097Z,5.58
2022-12-23T14:56:38.437Z,5.81
2022-12-23T15:00:02.828Z,6.15
2022-12-23T15:03:11.264Z,5.78
2022-12-23T15:06:36.196Z,5.75
2022-12-23T15:10:00.534Z,5.65
2022-12-23T15:13:06.078Z,5.23
2022-12-23T15:16:17.179Z,5.23
2022-12-23T15:19:23.210Z,5.05
2022-12-23T15:22:32.602Z,5.02
2022-12-23T15:25:42.180Z,4.99
2022-12-23T15:28:46.143Z,4.88
2022-12-23T15:31:58.223Z,4.83
2022-12-23T15:35:05.872Z,4.90
2022-12-23T15:38:08.517Z,4.86
2022-12-23T15:41:15.922Z,4.86
2022-12-23T15:44:26.955Z,4.83
2022-12-23T15:47:36.799Z,4.75
2022-12-23T15:50:44.586Z,4.83
2022-12-23T15:53:48.460Z,4.98
2022-12-23T15:56:54.344Z,4.90
2022-12-23T15:59:59.341Z,5.01
2022-12-23T16:03:04.052Z,4.89
2022-12-23T16:06:10.564Z,4.90
2022-12-23T16:09:16.748Z,4.87
2022-12-23T16:12:26.741Z,4.82
2022-12-23T16:15:32.134Z,4.74
2022-12-23T16:18:48.037Z,4.83
2022-12-23T16:21:50.965Z,4.73
2022-12-23T16:25:08.223Z,4.64
2022-12-23T16:28:24.644Z,4.84
2022-12-23T16:31:28.539Z,4.86
2022-12-23T16:34:32.143Z,4.79
2022-12-23T16:37:37.660Z,4.79
2022-12-23T16:40:41.348Z,4.88
2022-12-23T16:43:51.490Z,4.73
2022-12-23T16:46:55.382Z,4.76
2022-12-23T16:50:01.045Z,4.82
2022-12-23T16:53:03.559Z,4.88
2022-12-23T16:56:18.503Z,4.87
2022-12-23T16:59:22.612Z,4.83
2022-12-23T17:02:28.767Z,4.83
2022-12-23T17:05:32.673Z,4.76
2022-12-23T17:08:38.278Z,4.78
2022-12-23T17:11:49.453Z,4.79
2022-12-23T17:14:52.945Z,4.80
2022-12-23T17:17:55.483Z,4.73
2022-12-23T17:20:59.052Z,4.96
2022-12-23T17:24:13.016Z,4.97
2022-12-23T17:27:20.696Z,4.79
2022-12-23T17:30:25.586Z,5.04
2022-12-23T17:33:31.349Z,4.94
2022-12-23T17:36:33.984Z,4.96
2022-12-23T17:39:36.969Z,4.84
2022-12-23T17:42:39.960Z,4.58
2022-12-23T17:45:45.755Z,4.64
2022-12-23T17:48:49.997Z,4.63
2022-12-23T17:51:53.985Z,4.54
2022-12-23T17:54:56.551Z,4.52
2022-12-23T17:57:59.509Z,4.58
2022-12-23T18:01:02.662Z,4.52
2022-12-23T18:04:07.057Z,4.59
2022-12-23T18:07:12.457Z,4.56
2022-12-23T18:10:18.559Z,4.56
2022-12-23T18:13:23.564Z,4.71
2022-12-23T18:16:30.562Z,4.67
2022-12-23T18:19:33.402Z,4.63
2022-12-23T18:22:36.613Z,4.57
2022-12-23T18:25:39.400Z,4.67
2022-12-23T18:28:44.043Z,4.62
2022-12-23T18:31:51.413Z,4.58
2022-12-23T18:34:55.764Z,4.47
2022-12-23T18:37:59.059Z,4.37
2022-12-23T18:41:01.927Z,4.37
2022-12-23T18:44:04.806Z,4.55
2022-12-23T18:47:08.411Z,4.62
2022-12-23T18:50:13.645Z,4.86
2022-12-23T18:53:23.703Z,4.48
2022-12-23T18:56:27.674Z,4.37
2022-12-23T18:59:33.019Z,4.95
2022-12-23T19:02:35.834Z,4.60
2022-12-23T19:05:41.983Z,4.51
2022-12-23T19:08:44.588Z,4.54
2022-12-23T19:11:49.216Z,4.71
2022-12-23T19:14:52.242Z,4.46
2022-12-23T19:17:55.091Z,4.11
2022-12-23T19:21:04.124Z,4.39
2022-12-23T19:24:07.190Z,4.31
2022-12-23T19:27:09.929Z,4.23
2022-12-23T19:30:15.663Z,4.30
2022-12-23T19:33:18.915Z,4.34
2022-12-23T19:36:25.493Z,4.34
2022-12-23T19:39:28.110Z,4.49
2022-12-23T19:42:36.743Z,4.42
2022-12-23T19:45:41.290Z,4.38
2022-12-23T19:48:51.631Z,4.29
2022-12-23T19:51:54.336Z,4.36
2022-12-23T19:54:57.317Z,4.32
2022-12-23T19:58:02.858Z,4.33
2022-12-23T20:01:16.377Z,4.17
2022-12-23T20:04:19.775Z,4.26
2022-12-23T20:07:22.233Z,4.37
2022-12-23T20:10:29.179Z,4.29
2022-12-23T20:13:33.188Z,4.37
2022-12-23T20:16:40.910Z,4.40
2022-12-23T20:19:46.132Z,4.45
2022-12-23T20:22:50.681Z,4.42
2022-12-23T20:25:53.435Z,4.42
2022-12-23T20:28:57.584Z,4.35
2022-12-23T20:32:02.467Z,4.24
2022-12-23T20:35:07.241Z,4.27
2022-12-23T20:38:09.875Z,4.30
2022-12-23T20:41:17.791Z,4.45
2022-12-23T20:44:34.497Z,4.38
2022-12-23T20:47:38.540Z,4.39
2022-12-23T20:50:52.896Z,4.46
2022-12-23T20:53:59.854Z,4.53
2022-12-23T20:57:02.889Z,4.67
2022-12-23T21:00:07.085Z,4.82
2022-12-23T21:03:10.728Z,4.70
2022-12-23T21:06:14.037Z,4.82
2022-12-23T21:09:17.125Z,4.71
2022-12-23T21:12:20.532Z,4.51
2022-12-23T21:15:23.363Z,4.27
2022-12-23T21:18:26.267Z,4.36
2022-12-23T21:21:31.182Z,4.21
2022-12-23T21:24:34.064Z,4.32
2022-12-23T21:27:37.126Z,5.11
2022-12-23T21:30:46.014Z,4.79
2022-12-23T21:33:51.139Z,4.56
2022-12-23T21:36:54.391Z,4.30
2022-12-23T21:39:57.287Z,4.41
2022-12-23T21:43:05.419Z,4.33
2022-12-23T21:46:15.994Z,4.38
2022-12-23T21:49:19.784Z,4.16
2022-12-23T21:52:22.574Z,4.31
2022-12-23T21:55:25.340Z,4.19
2022-12-23T21:58:27.969Z,4.30
2022-12-23T22:01:34.391Z,4.28
2022-12-23T22:04:37.469Z,4.26
2022-12-23T22:07:40.281Z,4.27
2022-12-23T22:10:51.595Z,4.24
2022-12-23T22:13:56.126Z,4.27
2022-12-23T22:16:59.263Z,4.31
2022-12-23T22:20:03.026Z,4.33
2022-12-23T22:23:08.300Z,4.31
2022-12-23T22:26:17.478Z,5.18
2022-12-23T22:29:23.437Z,4.79
2022-12-23T22:32:26.035Z,4.50
2022-12-23T22:35:30.053Z,4.42
2022-12-23T22:38:32.651Z,4.42
2022-12-23T22:41:35.932Z,4.47
2022-12-23T22:44:38.608Z,4.39
2022-12-23T22:47:41.664Z,4.44
2022-12-23T22:50:49.048Z,4.55
2022-12-23T22:53:52.424Z,4.62
2022-12-23T22:56:55.163Z,4.46
2022-12-23T22:59:58.257Z,4.41
2022-12-23T23:03:01.133Z,4.68
2022-12-23T23:06:08.511Z,4.64
2022-12-23T23:09:17.487Z,4.66
2022-12-23T23:12:20.677Z,4.59
2022-12-23T23:15:23.260Z,4.65
2022-12-23T23:18:27.384Z,4.55
2022-12-23T23:21:30.116Z,4.47
2022-12-23T23:24:34.270Z,4.52
2022-12-23T23:27:36.808Z,4.71
2022-12-23T23:30:43.471Z,4.76
2022-12-23T23:33:47.718Z,4.71
2022-12-23T23:36:50.884Z,4.80
2022-12-23T23:39:53.446Z,4.77
2022-12-23T23:42:56.580Z,4.71
2022-12-23T23:45:59.342Z,4.70
2022-12-23T23:49:02.253Z,4.62
2022-12-23T23:52:05.038Z,4.64
2022-12-23T23:55:08.530Z,4.82
2022-12-23T23:58:11.956Z,4.66
